sensor_id;sensor_type;location;lat;lon;timestamp;temperature;humidity
11140;DHT22;5624;49.388;11.350;2022-12-05T00:01:37;4.40;99.10
11140;DHT22;5624;49.388;11.350;2022-12-05T00:04:07;4.40;99.00
11140;DHT22;5624;49.388;11.350;2022-12-05T00:06:35;4.40;99.20
11140;DHT22;5624;49.388;11.350;2022-12-05T00:09:02;4.40;99.10
11140;DHT22;5624;49.388;11.350;2022-12-05T00:11:30;4.40;99.10
11140;DHT22;5624;49.388;11.350;2022-12-05T00:13:57;4.40;99.00
11140;DHT22;5624;49.388;11.350;2022-12-05T00:16:25;4.40;99.50
11140;DHT22;5624;49.388;11.350;2022-12-05T00:18:51;4.40;99.70
11140;DHT22;5624;49.388;11.350;2022-12-05T00:21:22;4.40;99.90
11140;DHT22;5624;49.388;11.350;2022-12-05T00:23:50;4.40;99.90
11140;DHT22;5624;49.388;11.350;2022-12-05T00:26:16;4.30;99.90
11140;DHT22;5624;49.388;11.350;2022-12-05T00:28:42;4.40;99.90
11140;DHT22;5624;49.388;11.350;2022-12-05T00:31:11;4.30;99.90
11140;DHT22;5624;49.388;11.350;2022-12-05T00:33:37;4.30;99.90
11140;DHT22;5624;49.388;11.350;2022-12-05T00:36:05;4.30;99.90
11140;DHT22;5624;49.388;11.350;2022-12-05T00:38:31;4.30;99.90
11140;DHT22;5624;49.388;11.350;2022-12-05T00:41:05;4.30;99.90
11140;DHT22;5624;49.388;11.350;2022-12-05T00:43:31;4.30;99.90
11140;DHT22;5624;49.388;11.350;2022-12-05T00:46:03;4.30;99.90
11140;DHT22;5624;49.388;11.350;2022-12-05T00:48:30;4.30;99.90
11140;DHT22;5624;49.388;11.350;2022-12-05T00:51:04;4.30;99.90
11140;DHT22;5624;49.388;11.350;2022-12-05T00:53:30;4.30;99.90
11140;DHT22;5624;49.388;11.350;2022-12-05T00:56:04;4.30;99.90
11140;DHT22;5624;49.388;11.350;2022-12-05T00:58:31;4.30;99.90
11140;DHT22;5624;49.388;11.350;2022-12-05T01:01:03;4.30;99.90
11140;DHT22;5624;49.388;11.350;2022-12-05T01:03:29;4.30;99.90
11140;DHT22;5624;49.388;11.350;2022-12-05T01:05:57;4.20;99.90
11140;DHT22;5624;49.388;11.350;2022-12-05T01:08:23;4.30;99.90
11140;DHT22;5624;49.388;11.350;2022-12-05T01:10:54;4.30;99.90
11140;DHT22;5624;49.388;11.350;2022-12-05T01:13:20;4.30;99.90
11140;DHT22;5624;49.388;11.350;2022-12-05T01:15:46;4.30;99.90
11140;DHT22;5624;49.388;11.350;2022-12-05T01:18:11;4.30;99.90
11140;DHT22;5624;49.388;11.350;2022-12-05T01:20:41;4.30;99.90
11140;DHT22;5624;49.388;11.350;2022-12-05T01:23:08;4.30;99.90
11140;DHT22;5624;49.388;11.350;2022-12-05T01:25:33;4.30;99.90
11140;DHT22;5624;49.388;11.350;2022-12-05T01:27:59;4.30;99.90
11140;DHT22;5624;49.388;11.350;2022-12-05T01:30:25;4.30;99.90
11140;DHT22;5624;49.388;11.350;2022-12-05T01:32:51;4.30;99.90
11140;DHT22;5624;49.388;11.350;2022-12-05T01:35:17;4.30;99.90
11140;DHT22;5624;49.388;11.350;2022-12-05T01:37:42;4.30;99.90
11140;DHT22;5624;49.388;11.350;2022-12-05T01:40:08;4.30;99.90
11140;DHT22;5624;49.388;11.350;2022-12-05T01:42:34;4.30;99.90
11140;DHT22;5624;49.388;11.350;2022-12-05T01:45:04;4.30;99.90
11140;DHT22;5624;49.388;11.350;2022-12-05T01:47:32;4.30;99.90
11140;DHT22;5624;49.388;11.350;2022-12-05T01:49:58;4.30;99.90
11140;DHT22;5624;49.388;11.350;2022-12-05T01:52:26;4.30;99.90
11140;DHT22;5624;49.388;11.350;2022-12-05T01:54:55;4.40;99.90
11140;DHT22;5624;49.388;11.350;2022-12-05T01:57:21;4.30;99.90
11140;DHT22;5624;49.388;11.350;2022-12-05T01:59:50;4.30;99.90
11140;DHT22;5624;49.388;11.350;2022-12-05T02:02:17;4.30;99.90
11140;DHT22;5624;49.388;11.350;2022-12-05T02:05:04;4.30;99.90
11140;DHT22;5624;49.388;11.350;2022-12-05T02:07:31;4.30;99.90
11140;DHT22;5624;49.388;11.350;2022-12-05T02:09:58;4.30;99.90
11140;DHT22;5624;49.388;11.350;2022-12-05T02:12:24;4.30;99.90
11140;DHT22;5624;49.388;11.350;2022-12-05T02:18:57;4.30;99.90
11140;DHT22;5624;49.388;11.350;2022-12-05T02:21:27;4.30;99.90
11140;DHT22;5624;49.388;11.350;2022-12-05T02:24:03;4.40;99.90
11140;DHT22;5624;49.388;11.350;2022-12-05T02:36:06;4.30;99.90
11140;DHT22;5624;49.388;11.350;2022-12-05T02:38:56;4.20;99.90
11140;DHT22;5624;49.388;11.350;2022-12-05T02:41:39;4.20;99.90
11140;DHT22;5624;49.388;11.350;2022-12-05T02:44:06;4.10;99.90
11140;DHT22;5624;49.388;11.350;2022-12-05T02:46:37;4.10;99.90
11140;DHT22;5624;49.388;11.350;2022-12-05T02:49:09;4.00;99.90
11140;DHT22;5624;49.388;11.350;2022-12-05T02:51:45;4.00;99.90
11140;DHT22;5624;49.388;11.350;2022-12-05T02:54:17;4.00;99.90
11140;DHT22;5624;49.388;11.350;2022-12-05T02:56:45;4.00;99.90
11140;DHT22;5624;49.388;11.350;2022-12-05T02:59:11;4.00;99.90
11140;DHT22;5624;49.388;11.350;2022-12-05T03:01:37;3.90;99.90
11140;DHT22;5624;49.388;11.350;2022-12-05T03:04:05;3.90;99.90
11140;DHT22;5624;49.388;11.350;2022-12-05T03:06:44;3.90;99.90
11140;DHT22;5624;49.388;11.350;2022-12-05T03:09:12;3.90;99.90
11140;DHT22;5624;49.388;11.350;2022-12-05T03:14:45;3.90;99.90
11140;DHT22;5624;49.388;11.350;2022-12-05T03:17:17;3.80;99.90
11140;DHT22;5624;49.388;11.350;2022-12-05T03:22:36;3.80;99.90
11140;DHT22;5624;49.388;11.350;2022-12-05T03:25:04;3.80;99.90
11140;DHT22;5624;49.388;11.350;2022-12-05T03:28:05;3.80;99.90
11140;DHT22;5624;49.388;11.350;2022-12-05T03:30:35;3.80;99.90
11140;DHT22;5624;49.388;11.350;2022-12-05T03:33:10;3.70;99.90
11140;DHT22;5624;49.388;11.350;2022-12-05T03:38:24;3.60;99.90
11140;DHT22;5624;49.388;11.350;2022-12-05T03:43:33;3.70;99.90
11140;DHT22;5624;49.388;11.350;2022-12-05T03:46:05;3.60;99.90
11140;DHT22;5624;49.388;11.350;2022-12-05T03:51:09;3.50;99.90
11140;DHT22;5624;49.388;11.350;2022-12-05T03:53:41;3.60;99.90
11140;DHT22;5624;49.388;11.350;2022-12-05T03:56:20;3.50;99.90
11140;DHT22;5624;49.388;11.350;2022-12-05T03:58:56;3.50;99.90
11140;DHT22;5624;49.388;11.350;2022-12-05T04:01:26;3.50;99.90
11140;DHT22;5624;49.388;11.350;2022-12-05T04:03:56;3.40;99.90
11140;DHT22;5624;49.388;11.350;2022-12-05T04:06:29;3.50;99.90
11140;DHT22;5624;49.388;11.350;2022-12-05T04:08:59;3.50;99.90
11140;DHT22;5624;49.388;11.350;2022-12-05T04:11:32;3.50;99.90
11140;DHT22;5624;49.388;11.350;2022-12-05T04:14:14;3.50;99.90
11140;DHT22;5624;49.388;11.350;2022-12-05T04:16:49;3.50;99.90
11140;DHT22;5624;49.388;11.350;2022-12-05T04:22:29;3.30;99.90
11140;DHT22;5624;49.388;11.350;2022-12-05T04:24:56;3.30;99.90
11140;DHT22;5624;49.388;11.350;2022-12-05T04:28:05;3.20;99.90
11140;DHT22;5624;49.388;11.350;2022-12-05T04:30:42;3.30;99.90
11140;DHT22;5624;49.388;11.350;2022-12-05T04:35:54;3.30;99.90
11140;DHT22;5624;49.388;11.350;2022-12-05T04:38:27;3.30;99.90
11140;DHT22;5624;49.388;11.350;2022-12-05T04:41:04;3.30;99.90
11140;DHT22;5624;49.388;11.350;2022-12-05T04:43:35;3.30;99.90
11140;DHT22;5624;49.388;11.350;2022-12-05T04:46:04;3.30;99.90
11140;DHT22;5624;49.388;11.350;2022-12-05T04:48:32;3.30;99.90
11140;DHT22;5624;49.388;11.350;2022-12-05T04:51:00;3.20;99.90
11140;DHT22;5624;49.388;11.350;2022-12-05T04:53:28;3.10;99.90
11140;DHT22;5624;49.388;11.350;2022-12-05T04:55:58;3.10;99.90
11140;DHT22;5624;49.388;11.350;2022-12-05T04:58:26;3.20;99.90
11140;DHT22;5624;49.388;11.350;2022-12-05T05:01:09;3.10;99.90
11140;DHT22;5624;49.388;11.350;2022-12-05T05:06:04;3.00;99.90
11140;DHT22;5624;49.388;11.350;2022-12-05T05:08:31;3.00;99.90
11140;DHT22;5624;49.388;11.350;2022-12-05T05:11:03;3.00;99.90
11140;DHT22;5624;49.388;11.350;2022-12-05T05:13:31;3.00;99.90
11140;DHT22;5624;49.388;11.350;2022-12-05T05:15:57;3.00;99.90
11140;DHT22;5624;49.388;11.350;2022-12-05T05:18:22;3.00;99.90
11140;DHT22;5624;49.388;11.350;2022-12-05T05:20:48;2.90;99.90
11140;DHT22;5624;49.388;11.350;2022-12-05T05:23:14;2.90;99.90
11140;DHT22;5624;49.388;11.350;2022-12-05T05:25:40;2.90;99.90
11140;DHT22;5624;49.388;11.350;2022-12-05T05:28:05;2.90;99.90
11140;DHT22;5624;49.388;11.350;2022-12-05T05:30:31;2.90;99.90
11140;DHT22;5624;49.388;11.350;2022-12-05T05:32:58;2.90;99.90
11140;DHT22;5624;49.388;11.350;2022-12-05T05:35:24;2.90;99.90
11140;DHT22;5624;49.388;11.350;2022-12-05T05:37:50;2.80;99.90
11140;DHT22;5624;49.388;11.350;2022-12-05T05:40:16;2.80;99.90
11140;DHT22;5624;49.388;11.350;2022-12-05T05:42:44;2.80;99.90
11140;DHT22;5624;49.388;11.350;2022-12-05T05:45:11;2.90;99.90
11140;DHT22;5624;49.388;11.350;2022-12-05T05:47:37;2.90;99.90
11140;DHT22;5624;49.388;11.350;2022-12-05T05:50:04;2.80;99.90
11140;DHT22;5624;49.388;11.350;2022-12-05T05:52:32;2.80;99.90
11140;DHT22;5624;49.388;11.350;2022-12-05T05:54:58;2.80;99.90
11140;DHT22;5624;49.388;11.350;2022-12-05T05:57:23;2.80;99.90
11140;DHT22;5624;49.388;11.350;2022-12-05T05:59:49;2.80;99.90
11140;DHT22;5624;49.388;11.350;2022-12-05T06:02:14;2.80;99.90
11140;DHT22;5624;49.388;11.350;2022-12-05T06:04:40;2.80;99.90
11140;DHT22;5624;49.388;11.350;2022-12-05T06:07:06;2.80;99.90
11140;DHT22;5624;49.388;11.350;2022-12-05T06:09:31;2.80;99.90
11140;DHT22;5624;49.388;11.350;2022-12-05T06:11:57;2.70;99.90
11140;DHT22;5624;49.388;11.350;2022-12-05T06:14:23;2.70;99.90
11140;DHT22;5624;49.388;11.350;2022-12-05T06:16:48;2.70;99.90
11140;DHT22;5624;49.388;11.350;2022-12-05T06:19:14;2.80;99.90
11140;DHT22;5624;49.388;11.350;2022-12-05T06:21:39;2.80;99.90
11140;DHT22;5624;49.388;11.350;2022-12-05T06:24:05;2.80;99.90
11140;DHT22;5624;49.388;11.350;2022-12-05T06:26:31;2.80;99.90
11140;DHT22;5624;49.388;11.350;2022-12-05T06:28:57;2.80;99.90
11140;DHT22;5624;49.388;11.350;2022-12-05T06:31:23;2.80;99.90
11140;DHT22;5624;49.388;11.350;2022-12-05T06:33:52;2.80;99.90
11140;DHT22;5624;49.388;11.350;2022-12-05T06:36:20;2.80;99.90
11140;DHT22;5624;49.388;11.350;2022-12-05T06:38:46;2.70;99.90
11140;DHT22;5624;49.388;11.350;2022-12-05T06:41:17;2.70;99.90
11140;DHT22;5624;49.388;11.350;2022-12-05T06:43:42;2.70;99.90
11140;DHT22;5624;49.388;11.350;2022-12-05T06:46:11;2.70;99.60
11140;DHT22;5624;49.388;11.350;2022-12-05T06:48:38;2.70;99.60
11140;DHT22;5624;49.388;11.350;2022-12-05T06:51:04;2.60;99.70
11140;DHT22;5624;49.388;11.350;2022-12-05T06:53:31;2.60;99.90
11140;DHT22;5624;49.388;11.350;2022-12-05T06:55:59;2.50;99.90
11140;DHT22;5624;49.388;11.350;2022-12-05T06:58:25;2.50;99.80
11140;DHT22;5624;49.388;11.350;2022-12-05T07:00:51;2.50;99.90
11140;DHT22;5624;49.388;11.350;2022-12-05T07:03:37;2.40;99.90
11140;DHT22;5624;49.388;11.350;2022-12-05T07:06:04;2.40;99.90
11140;DHT22;5624;49.388;11.350;2022-12-05T07:08:30;2.50;99.50
11140;DHT22;5624;49.388;11.350;2022-12-05T07:10:56;2.40;99.80
11140;DHT22;5624;49.388;11.350;2022-12-05T07:13:22;2.50;99.30
11140;DHT22;5624;49.388;11.350;2022-12-05T07:15:48;2.50;99.00
11140;DHT22;5624;49.388;11.350;2022-12-05T07:18:15;2.50;98.80
11140;DHT22;5624;49.388;11.350;2022-12-05T07:20:41;2.50;98.80
11140;DHT22;5624;49.388;11.350;2022-12-05T07:23:08;2.40;98.40
11140;DHT22;5624;49.388;11.350;2022-12-05T07:25:38;2.40;98.30
11140;DHT22;5624;49.388;11.350;2022-12-05T07:28:04;2.40;98.20
11140;DHT22;5624;49.388;11.350;2022-12-05T07:30:30;2.40;97.70
11140;DHT22;5624;49.388;11.350;2022-12-05T07:32:56;2.40;97.60
11140;DHT22;5624;49.388;11.350;2022-12-05T07:35:21;2.40;97.40
11140;DHT22;5624;49.388;11.350;2022-12-05T07:37:47;2.30;96.80
11140;DHT22;5624;49.388;11.350;2022-12-05T07:40:13;2.30;96.20
11140;DHT22;5624;49.388;11.350;2022-12-05T07:42:39;2.40;97.30
11140;DHT22;5624;49.388;11.350;2022-12-05T07:45:05;2.30;97.20
11140;DHT22;5624;49.388;11.350;2022-12-05T07:47:31;2.40;97.50
11140;DHT22;5624;49.388;11.350;2022-12-05T07:49:56;2.40;97.20
11140;DHT22;5624;49.388;11.350;2022-12-05T07:52:22;2.40;97.40
11140;DHT22;5624;49.388;11.350;2022-12-05T07:54:48;2.50;97.30
11140;DHT22;5624;49.388;11.350;2022-12-05T07:57:13;2.50;97.20
11140;DHT22;5624;49.388;11.350;2022-12-05T07:59:39;2.50;97.00
11140;DHT22;5624;49.388;11.350;2022-12-05T08:02:05;2.50;97.10
11140;DHT22;5624;49.388;11.350;2022-12-05T08:04:30;2.50;97.40
11140;DHT22;5624;49.388;11.350;2022-12-05T08:06:56;2.50;97.30
11140;DHT22;5624;49.388;11.350;2022-12-05T08:09:21;2.60;97.20
11140;DHT22;5624;49.388;11.350;2022-12-05T08:11:47;2.60;97.00
11140;DHT22;5624;49.388;11.350;2022-12-05T08:14:13;2.60;97.40
11140;DHT22;5624;49.388;11.350;2022-12-05T08:16:38;2.50;96.90
11140;DHT22;5624;49.388;11.350;2022-12-05T08:19:06;2.40;97.00
11140;DHT22;5624;49.388;11.350;2022-12-05T08:21:33;2.40;97.70
11140;DHT22;5624;49.388;11.350;2022-12-05T08:23:59;2.40;97.70
11140;DHT22;5624;49.388;11.350;2022-12-05T08:26:27;2.40;97.40
11140;DHT22;5624;49.388;11.350;2022-12-05T08:29:13;2.50;97.90
11140;DHT22;5624;49.388;11.350;2022-12-05T08:31:44;2.60;97.40
11140;DHT22;5624;49.388;11.350;2022-12-05T08:34:12;2.50;97.40
11140;DHT22;5624;49.388;11.350;2022-12-05T08:36:38;2.50;96.90
11140;DHT22;5624;49.388;11.350;2022-12-05T08:39:05;2.60;97.40
11140;DHT22;5624;49.388;11.350;2022-12-05T08:41:31;2.70;97.40
11140;DHT22;5624;49.388;11.350;2022-12-05T08:44:03;2.70;97.30
11140;DHT22;5624;49.388;11.350;2022-12-05T08:46:36;2.80;96.80
11140;DHT22;5624;49.388;11.350;2022-12-05T08:49:03;2.80;97.40
11140;DHT22;5624;49.388;11.350;2022-12-05T08:51:29;2.80;96.90
11140;DHT22;5624;49.388;11.350;2022-12-05T08:53:55;2.80;96.90
11140;DHT22;5624;49.388;11.350;2022-12-05T08:56:21;2.80;96.80
11140;DHT22;5624;49.388;11.350;2022-12-05T08:58:47;2.90;96.90
11140;DHT22;5624;49.388;11.350;2022-12-05T09:01:17;2.90;96.40
11140;DHT22;5624;49.388;11.350;2022-12-05T09:03:44;2.90;96.00
11140;DHT22;5624;49.388;11.350;2022-12-05T09:06:15;2.80;96.40
11140;DHT22;5624;49.388;11.350;2022-12-05T09:08:42;2.90;96.30
11140;DHT22;5624;49.388;11.350;2022-12-05T09:11:16;2.90;96.90
11140;DHT22;5624;49.388;11.350;2022-12-05T09:13:42;2.90;96.10
11140;DHT22;5624;49.388;11.350;2022-12-05T09:16:22;2.90;96.80
11140;DHT22;5624;49.388;11.350;2022-12-05T09:18:49;2.80;97.00
11140;DHT22;5624;49.388;11.350;2022-12-05T09:21:18;2.80;97.40
11140;DHT22;5624;49.388;11.350;2022-12-05T09:23:45;2.80;97.50
11140;DHT22;5624;49.388;11.350;2022-12-05T09:26:12;2.80;97.60
11140;DHT22;5624;49.388;11.350;2022-12-05T09:28:39;2.80;97.80
11140;DHT22;5624;49.388;11.350;2022-12-05T09:31:08;2.80;97.10
11140;DHT22;5624;49.388;11.350;2022-12-05T09:33:36;2.80;97.40
11140;DHT22;5624;49.388;11.350;2022-12-05T09:36:04;2.80;97.10
11140;DHT22;5624;49.388;11.350;2022-12-05T09:38:30;2.80;97.10
11140;DHT22;5624;49.388;11.350;2022-12-05T09:41:16;2.80;97.20
11140;DHT22;5624;49.388;11.350;2022-12-05T09:44:05;2.80;97.60
11140;DHT22;5624;49.388;11.350;2022-12-05T09:46:55;3.00;97.10
11140;DHT22;5624;49.388;11.350;2022-12-05T09:49:22;3.00;96.60
11140;DHT22;5624;49.388;11.350;2022-12-05T09:51:50;2.90;96.60
11140;DHT22;5624;49.388;11.350;2022-12-05T09:54:17;3.00;96.20
11140;DHT22;5624;49.388;11.350;2022-12-05T09:56:43;3.00;95.60
11140;DHT22;5624;49.388;11.350;2022-12-05T09:59:14;2.90;95.20
11140;DHT22;5624;49.388;11.350;2022-12-05T10:06:44;3.10;96.10
11140;DHT22;5624;49.388;11.350;2022-12-05T10:09:40;3.10;95.80
11140;DHT22;5624;49.388;11.350;2022-12-05T10:15:00;3.20;96.50
11140;DHT22;5624;49.388;11.350;2022-12-05T10:17:32;3.20;96.70
11140;DHT22;5624;49.388;11.350;2022-12-05T10:20:02;3.30;95.90
11140;DHT22;5624;49.388;11.350;2022-12-05T10:22:46;3.30;96.20
11140;DHT22;5624;49.388;11.350;2022-12-05T10:25:15;3.40;95.10
11140;DHT22;5624;49.388;11.350;2022-12-05T10:27:55;3.40;94.80
11140;DHT22;5624;49.388;11.350;2022-12-05T10:30:24;3.50;93.80
11140;DHT22;5624;49.388;11.350;2022-12-05T10:32:57;3.50;93.60
11140;DHT22;5624;49.388;11.350;2022-12-05T10:35:26;3.60;95.50
11140;DHT22;5624;49.388;11.350;2022-12-05T10:38:03;3.70;95.30
11140;DHT22;5624;49.388;11.350;2022-12-05T10:40:41;3.70;94.80
11140;DHT22;5624;49.388;11.350;2022-12-05T10:43:11;3.80;94.60
11140;DHT22;5624;49.388;11.350;2022-12-05T10:45:43;3.70;94.50
11140;DHT22;5624;49.388;11.350;2022-12-05T10:48:12;3.80;94.60
11140;DHT22;5624;49.388;11.350;2022-12-05T10:50:39;3.70;94.00
11140;DHT22;5624;49.388;11.350;2022-12-05T10:53:07;3.60;94.20
11140;DHT22;5624;49.388;11.350;2022-12-05T10:55:40;3.60;94.40
11140;DHT22;5624;49.388;11.350;2022-12-05T11:00:36;3.70;93.90
11140;DHT22;5624;49.388;11.350;2022-12-05T11:05:49;3.80;94.20
11140;DHT22;5624;49.388;11.350;2022-12-05T11:08:30;3.90;94.10
11140;DHT22;5624;49.388;11.350;2022-12-05T11:11:06;3.90;94.00
11140;DHT22;5624;49.388;11.350;2022-12-05T11:13:33;3.90;93.30
11140;DHT22;5624;49.388;11.350;2022-12-05T11:16:00;3.80;93.80
11140;DHT22;5624;49.388;11.350;2022-12-05T11:18:31;3.80;93.50
11140;DHT22;5624;49.388;11.350;2022-12-05T11:21:17;3.70;93.80
11140;DHT22;5624;49.388;11.350;2022-12-05T11:23:44;3.60;93.70
11140;DHT22;5624;49.388;11.350;2022-12-05T11:26:31;3.60;94.20
11140;DHT22;5624;49.388;11.350;2022-12-05T11:28:58;3.50;93.90
11140;DHT22;5624;49.388;11.350;2022-12-05T11:31:29;3.50;94.80
11140;DHT22;5624;49.388;11.350;2022-12-05T11:34:16;3.50;94.90
11140;DHT22;5624;49.388;11.350;2022-12-05T11:36:51;3.40;95.10
11140;DHT22;5624;49.388;11.350;2022-12-05T11:39:18;3.40;95.80
11140;DHT22;5624;49.388;11.350;2022-12-05T11:47:13;3.50;95.90
11140;DHT22;5624;49.388;11.350;2022-12-05T11:53:06;3.70;95.40
11140;DHT22;5624;49.388;11.350;2022-12-05T11:55:45;3.70;94.60
11140;DHT22;5624;49.388;11.350;2022-12-05T11:58:39;3.70;94.90
11140;DHT22;5624;49.388;11.350;2022-12-05T12:07:00;3.80;95.20
11140;DHT22;5624;49.388;11.350;2022-12-05T12:14:53;4.00;94.60
11140;DHT22;5624;49.388;11.350;2022-12-05T12:17:37;4.00;94.40
11140;DHT22;5624;49.388;11.350;2022-12-05T12:20:21;3.90;93.00
11140;DHT22;5624;49.388;11.350;2022-12-05T12:42:00;3.70;96.20
11140;DHT22;5624;49.388;11.350;2022-12-05T12:47:42;3.70;96.30
11140;DHT22;5624;49.388;11.350;2022-12-05T12:50:25;3.70;96.90
11140;DHT22;5624;49.388;11.350;2022-12-05T13:01:05;3.70;97.40
11140;DHT22;5624;49.388;11.350;2022-12-05T13:03:51;3.70;97.40
11140;DHT22;5624;49.388;11.350;2022-12-05T13:06:25;3.70;97.50
11140;DHT22;5624;49.388;11.350;2022-12-05T13:08:56;3.70;97.70
11140;DHT22;5624;49.388;11.350;2022-12-05T13:11:24;3.80;97.40
11140;DHT22;5624;49.388;11.350;2022-12-05T13:13:53;3.70;96.20
11140;DHT22;5624;49.388;11.350;2022-12-05T13:16:29;3.70;96.60
11140;DHT22;5624;49.388;11.350;2022-12-05T13:18:57;3.60;96.80
11140;DHT22;5624;49.388;11.350;2022-12-05T13:21:24;3.60;97.40
11140;DHT22;5624;49.388;11.350;2022-12-05T13:23:53;3.70;97.30
11140;DHT22;5624;49.388;11.350;2022-12-05T13:26:20;3.70;97.60
11140;DHT22;5624;49.388;11.350;2022-12-05T13:28:59;3.70;98.00
11140;DHT22;5624;49.388;11.350;2022-12-05T13:31:43;3.80;98.10
11140;DHT22;5624;49.388;11.350;2022-12-05T13:37:30;3.60;97.80
11140;DHT22;5624;49.388;11.350;2022-12-05T13:40:34;3.70;98.20
11140;DHT22;5624;49.388;11.350;2022-12-05T13:43:25;3.60;97.80
11140;DHT22;5624;49.388;11.350;2022-12-05T13:46:05;3.60;98.90
11140;DHT22;5624;49.388;11.350;2022-12-05T13:48:35;3.60;98.70
11140;DHT22;5624;49.388;11.350;2022-12-05T13:51:04;3.70;98.80
11140;DHT22;5624;49.388;11.350;2022-12-05T13:53:57;3.70;99.00
11140;DHT22;5624;49.388;11.350;2022-12-05T14:00:03;3.80;98.80
11140;DHT22;5624;49.388;11.350;2022-12-05T14:05:36;3.60;99.60
11140;DHT22;5624;49.388;11.350;2022-12-05T14:24:50;3.80;99.30
11140;DHT22;5624;49.388;11.350;2022-12-05T14:33:42;3.80;99.50
11140;DHT22;5624;49.388;11.350;2022-12-05T14:36:14;3.80;99.80
11140;DHT22;5624;49.388;11.350;2022-12-05T14:38:41;3.80;99.80
11140;DHT22;5624;49.388;11.350;2022-12-05T14:41:41;3.70;99.90
11140;DHT22;5624;49.388;11.350;2022-12-05T14:44:17;3.80;99.90
11140;DHT22;5624;49.388;11.350;2022-12-05T14:46:44;3.70;99.90
11140;DHT22;5624;49.388;11.350;2022-12-05T14:49:34;3.70;99.90
11140;DHT22;5624;49.388;11.350;2022-12-05T14:52:00;3.70;99.90
11140;DHT22;5624;49.388;11.350;2022-12-05T14:54:33;3.70;99.80
11140;DHT22;5624;49.388;11.350;2022-12-05T14:57:10;3.70;99.70
11140;DHT22;5624;49.388;11.350;2022-12-05T14:59:49;3.70;99.80
11140;DHT22;5624;49.388;11.350;2022-12-05T15:02:26;3.70;99.60
11140;DHT22;5624;49.388;11.350;2022-12-05T15:07:43;3.70;99.80
11140;DHT22;5624;49.388;11.350;2022-12-05T15:12:40;3.60;99.90
11140;DHT22;5624;49.388;11.350;2022-12-05T15:23:56;3.50;99.90
11140;DHT22;5624;49.388;11.350;2022-12-05T15:26:36;3.50;99.90
11140;DHT22;5624;49.388;11.350;2022-12-05T15:31:59;3.60;99.90
11140;DHT22;5624;49.388;11.350;2022-12-05T15:37:25;3.40;99.90
11140;DHT22;5624;49.388;11.350;2022-12-05T15:42:35;3.50;99.90
11140;DHT22;5624;49.388;11.350;2022-12-05T15:47:53;3.50;99.90
11140;DHT22;5624;49.388;11.350;2022-12-05T15:50:37;3.50;99.90
11140;DHT22;5624;49.388;11.350;2022-12-05T15:56:00;3.50;99.90
11140;DHT22;5624;49.388;11.350;2022-12-05T15:58:39;3.50;99.90
11140;DHT22;5624;49.388;11.350;2022-12-05T16:01:14;3.50;99.90
11140;DHT22;5624;49.388;11.350;2022-12-05T16:07:00;3.50;99.90
11140;DHT22;5624;49.388;11.350;2022-12-05T16:09:08;3.50;99.90
11140;DHT22;5624;49.388;11.350;2022-12-05T16:11:38;3.60;99.90
11140;DHT22;5624;49.388;11.350;2022-12-05T16:14:05;3.50;99.90
11140;DHT22;5624;49.388;11.350;2022-12-05T16:16:34;3.50;99.90
11140;DHT22;5624;49.388;11.350;2022-12-05T16:19:21;3.50;99.90
11140;DHT22;5624;49.388;11.350;2022-12-05T16:22:15;3.60;99.90
11140;DHT22;5624;49.388;11.350;2022-12-05T16:24:45;3.50;99.90
11140;DHT22;5624;49.388;11.350;2022-12-05T16:27:13;3.50;99.90
11140;DHT22;5624;49.388;11.350;2022-12-05T16:29:39;3.50;99.90
11140;DHT22;5624;49.388;11.350;2022-12-05T16:32:22;3.50;99.90
11140;DHT22;5624;49.388;11.350;2022-12-05T16:34:48;3.50;99.90
11140;DHT22;5624;49.388;11.350;2022-12-05T16:37:32;3.40;99.90
11140;DHT22;5624;49.388;11.350;2022-12-05T16:39:57;3.40;99.90
11140;DHT22;5624;49.388;11.350;2022-12-05T16:42:28;3.40;99.90
11140;DHT22;5624;49.388;11.350;2022-12-05T16:45:00;3.40;99.90
11140;DHT22;5624;49.388;11.350;2022-12-05T16:47:55;3.40;99.90
11140;DHT22;5624;49.388;11.350;2022-12-05T16:50:35;3.40;99.90
11140;DHT22;5624;49.388;11.350;2022-12-05T16:55:35;3.40;99.90
11140;DHT22;5624;49.388;11.350;2022-12-05T16:58:03;3.40;99.90
11140;DHT22;5624;49.388;11.350;2022-12-05T17:00:30;3.40;99.90
11140;DHT22;5624;49.388;11.350;2022-12-05T17:02:56;3.40;99.90
11140;DHT22;5624;49.388;11.350;2022-12-05T17:05:22;3.40;99.90
11140;DHT22;5624;49.388;11.350;2022-12-05T17:07:49;3.40;99.90
11140;DHT22;5624;49.388;11.350;2022-12-05T17:10:15;3.50;99.90
11140;DHT22;5624;49.388;11.350;2022-12-05T17:12:41;3.40;99.90
11140;DHT22;5624;49.388;11.350;2022-12-05T17:15:18;3.40;99.90
11140;DHT22;5624;49.388;11.350;2022-12-05T17:17:44;3.30;99.90
11140;DHT22;5624;49.388;11.350;2022-12-05T17:20:10;3.30;99.90
11140;DHT22;5624;49.388;11.350;2022-12-05T17:22:38;3.30;99.90
11140;DHT22;5624;49.388;11.350;2022-12-05T17:25:16;3.30;99.90
11140;DHT22;5624;49.388;11.350;2022-12-05T17:27:43;3.30;99.90
11140;DHT22;5624;49.388;11.350;2022-12-05T17:30:09;3.20;99.90
11140;DHT22;5624;49.388;11.350;2022-12-05T17:32:35;3.20;99.90
11140;DHT22;5624;49.388;11.350;2022-12-05T17:35:00;3.20;99.90
11140;DHT22;5624;49.388;11.350;2022-12-05T17:37:26;3.10;99.90
11140;DHT22;5624;49.388;11.350;2022-12-05T17:39:52;3.10;99.90
11140;DHT22;5624;49.388;11.350;2022-12-05T17:42:17;3.10;99.90
11140;DHT22;5624;49.388;11.350;2022-12-05T17:44:43;3.10;99.90
11140;DHT22;5624;49.388;11.350;2022-12-05T17:47:09;3.00;99.90
11140;DHT22;5624;49.388;11.350;2022-12-05T17:49:35;3.00;99.90
11140;DHT22;5624;49.388;11.350;2022-12-05T17:52:00;3.00;99.90
11140;DHT22;5624;49.388;11.350;2022-12-05T17:54:29;3.00;99.90
11140;DHT22;5624;49.388;11.350;2022-12-05T17:56:54;3.10;99.90
11140;DHT22;5624;49.388;11.350;2022-12-05T17:59:20;3.00;99.90
11140;DHT22;5624;49.388;11.350;2022-12-05T18:01:46;3.00;99.90
11140;DHT22;5624;49.388;11.350;2022-12-05T18:04:11;3.00;99.90
11140;DHT22;5624;49.388;11.350;2022-12-05T18:06:37;3.00;99.90
11140;DHT22;5624;49.388;11.350;2022-12-05T18:09:03;3.00;99.90
11140;DHT22;5624;49.388;11.350;2022-12-05T18:11:29;2.90;99.90
11140;DHT22;5624;49.388;11.350;2022-12-05T18:13:55;2.90;99.90
11140;DHT22;5624;49.388;11.350;2022-12-05T18:16:20;3.00;99.90
11140;DHT22;5624;49.388;11.350;2022-12-05T18:18:46;2.90;99.90
11140;DHT22;5624;49.388;11.350;2022-12-05T18:21:12;3.00;99.90
11140;DHT22;5624;49.388;11.350;2022-12-05T18:23:38;2.90;99.90
11140;DHT22;5624;49.388;11.350;2022-12-05T18:26:06;2.90;99.90
11140;DHT22;5624;49.388;11.350;2022-12-05T18:28:34;2.90;99.90
11140;DHT22;5624;49.388;11.350;2022-12-05T18:31:15;2.90;99.90
11140;DHT22;5624;49.388;11.350;2022-12-05T18:33:42;2.90;99.90
11140;DHT22;5624;49.388;11.350;2022-12-05T18:36:10;2.80;99.90
11140;DHT22;5624;49.388;11.350;2022-12-05T18:38:36;2.80;99.90
11140;DHT22;5624;49.388;11.350;2022-12-05T18:41:03;2.80;99.90
11140;DHT22;5624;49.388;11.350;2022-12-05T18:43:30;2.70;99.90
11140;DHT22;5624;49.388;11.350;2022-12-05T18:45:57;2.80;99.90
11140;DHT22;5624;49.388;11.350;2022-12-05T18:48:23;2.80;99.90
11140;DHT22;5624;49.388;11.350;2022-12-05T18:50:49;2.70;99.90